Time;durP1;ratioP1;P1;durP2;ratioP2;P2;SDS_P1;SDS_P2;PMS_P1;PMS_P2;Temp;Humidity;BMP_temperature;BMP_pressure;BME280_temperature;BME280_humidity;BME280_pressure;Samples;Min_cycle;Max_cycle;Signal;HPM_P1;HPM_P2
2022/07/17 00:01:45;;;;;;;5.13;0.50;;;;;;;;;;5323497;28;20030;-73
2022/07/17 00:04:16;;;;;;;4.88;0.60;;;;;;;;;;5326582;28;20291;-73
2022/07/17 00:06:47;;;;;;;4.63;0.85;;;;;;;;;;5325588;28;20026;-73
2022/07/17 00:09:19;;;;;;;5.93;1.05;;;;;;;;;;5326080;28;20346;-72
2022/07/17 00:11:50;;;;;;;6.43;0.85;;;;;;;;;;5326829;28;20458;-72
2022/07/17 00:14:21;;;;;;;7.53;0.73;;;;;;;;;;5325395;28;20047;-73
2022/07/17 00:16:53;;;;;;;6.70;0.70;;;;;;;;;;5326555;28;20276;-74
2022/07/17 00:19:24;;;;;;;6.53;0.73;;;;;;;;;;5326094;28;20413;-73
2022/07/17 00:21:56;;;;;;;6.18;0.90;;;;;;;;;;5325422;27;20046;-73
2022/07/17 00:24:27;;;;;;;8.88;0.93;;;;;;;;;;5326266;28;20016;-73
2022/07/17 00:26:58;;;;;;;5.43;0.90;;;;;;;;;;5326555;28;20031;-73
2022/07/17 00:29:29;;;;;;;8.50;0.80;;;;;;;;;;5325056;28;20354;-73
2022/07/17 00:32:00;;;;;;;6.40;0.70;;;;;;;;;;5326056;28;20019;-73
2022/07/17 00:34:32;;;;;;;4.18;0.65;;;;;;;;;;5326065;28;20262;-73
2022/07/17 00:37:03;;;;;;;7.25;1.15;;;;;;;;;;5325472;28;20273;-73
2022/07/17 00:39:34;;;;;;;8.02;0.65;;;;;;;;;;5326106;28;20020;-74
2022/07/17 00:42:09;;;;;;;4.68;0.60;;;;;;;;;;5325224;28;20293;-73
2022/07/17 00:44:41;;;;;;;7.55;0.90;;;;;;;;;;5325846;28;20809;-74
2022/07/17 00:47:16;;;;;;;5.60;0.60;;;;;;;;;;5325907;28;20032;-73
2022/07/17 00:49:47;;;;;;;2.55;0.60;;;;;;;;;;5324965;28;20062;-73
2022/07/17 00:52:18;;;;;;;5.68;0.93;;;;;;;;;;5325411;27;20497;-73
2022/07/17 00:54:50;;;;;;;7.03;1.00;;;;;;;;;;5325930;28;20344;-73
2022/07/17 00:57:21;;;;;;;9.15;1.25;;;;;;;;;;5324438;28;20062;-73
2022/07/17 00:59:53;;;;;;;7.35;0.90;;;;;;;;;;5326053;28;20099;-73
2022/07/17 01:02:24;;;;;;;7.28;0.90;;;;;;;;;;5325389;28;20098;-73
2022/07/17 01:04:55;;;;;;;4.07;0.80;;;;;;;;;;5324958;28;20268;-73
2022/07/17 01:07:26;;;;;;;7.25;0.85;;;;;;;;;;5325031;28;20301;-73
2022/07/17 01:09:57;;;;;;;3.17;0.70;;;;;;;;;;5325183;28;20264;-73
2022/07/17 01:12:29;;;;;;;5.35;1.13;;;;;;;;;;5324472;28;20261;-73
2022/07/17 01:15:01;;;;;;;5.72;1.00;;;;;;;;;;5324916;28;20486;-73
2022/07/17 01:17:32;;;;;;;7.20;0.77;;;;;;;;;;5324456;28;20020;-73
2022/07/17 01:20:04;;;;;;;4.38;0.80;;;;;;;;;;5325186;28;20026;-73
2022/07/17 01:22:40;;;;;;;3.67;0.60;;;;;;;;;;5324708;28;20051;-73
2022/07/17 01:25:11;;;;;;;3.47;0.60;;;;;;;;;;5324474;28;20027;-73
2022/07/17 01:27:42;;;;;;;8.43;1.08;;;;;;;;;;5324975;28;20031;-72
2022/07/17 01:30:13;;;;;;;8.23;0.82;;;;;;;;;;5324947;28;20086;-73
2022/07/17 01:32:45;;;;;;;5.97;0.60;;;;;;;;;;5324101;28;20277;-74
2022/07/17 01:35:16;;;;;;;6.88;0.70;;;;;;;;;;5324604;28;20314;-73
2022/07/17 01:37:48;;;;;;;3.38;0.70;;;;;;;;;;5324672;28;20020;-73
2022/07/17 01:40:19;;;;;;;4.10;0.70;;;;;;;;;;5323708;28;20459;-73
2022/07/17 01:42:50;;;;;;;9.77;0.80;;;;;;;;;;5324960;28;20024;-73
2022/07/17 01:45:21;;;;;;;4.40;0.80;;;;;;;;;;5323400;28;20034;-74
2022/07/17 01:47:53;;;;;;;7.38;0.73;;;;;;;;;;5324753;28;20061;-73
2022/07/17 01:50:24;;;;;;;4.55;0.70;;;;;;;;;;5324218;28;20377;-74
2022/07/17 01:52:55;;;;;;;7.05;0.88;;;;;;;;;;5324188;28;20045;-74
2022/07/17 01:55:26;;;;;;;4.57;0.70;;;;;;;;;;5324056;28;20615;-74
2022/07/17 01:57:57;;;;;;;3.03;1.00;;;;;;;;;;5324927;28;20011;-74
2022/07/17 02:00:29;;;;;;;5.33;1.00;;;;;;;;;;5323435;28;20051;-74
2022/07/17 02:03:00;;;;;;;4.28;0.70;;;;;;;;;;5324384;28;20272;-74
2022/07/17 02:05:31;;;;;;;3.88;0.90;;;;;;;;;;5324350;28;20022;-74
2022/07/17 02:08:02;;;;;;;6.03;0.80;;;;;;;;;;5323188;28;20358;-74
2022/07/17 02:10:34;;;;;;;4.75;1.52;;;;;;;;;;5324366;28;20365;-74
2022/07/17 02:13:05;;;;;;;7.07;1.08;;;;;;;;;;5324309;28;20016;-74
2022/07/17 02:15:36;;;;;;;2.97;0.80;;;;;;;;;;5323327;28;20020;-74
2022/07/17 02:18:08;;;;;;;5.80;0.80;;;;;;;;;;5324040;28;20269;-74
2022/07/17 02:20:41;;;;;;;7.15;0.75;;;;;;;;;;5323073;28;20262;-73
2022/07/17 02:23:12;;;;;;;9.15;1.25;;;;;;;;;;5323775;28;20048;-73
2022/07/17 02:25:43;;;;;;;4.32;0.80;;;;;;;;;;5323821;28;20434;-73
2022/07/17 02:28:15;;;;;;;2.25;0.63;;;;;;;;;;5323166;28;20313;-74
2022/07/17 02:30:46;;;;;;;5.63;0.85;;;;;;;;;;5323847;28;20106;-74
2022/07/17 02:33:17;;;;;;;5.07;0.93;;;;;;;;;;5324039;28;20012;-74
2022/07/17 02:35:49;;;;;;;4.97;1.20;;;;;;;;;;5322944;28;20012;-74
2022/07/17 02:38:20;;;;;;;4.65;0.90;;;;;;;;;;5323432;28;20790;-74
2022/07/17 02:40:51;;;;;;;7.53;1.17;;;;;;;;;;5323979;28;20147;-74
2022/07/17 02:43:22;;;;;;;5.07;0.80;;;;;;;;;;5322506;28;20019;-73
2022/07/17 02:45:53;;;;;;;5.82;0.90;;;;;;;;;;5324113;28;20268;-73
2022/07/17 02:48:24;;;;;;;7.45;0.82;;;;;;;;;;5322827;28;20038;-73
2022/07/17 02:50:56;;;;;;;3.05;0.90;;;;;;;;;;5323594;28;20265;-73
2022/07/17 02:53:27;;;;;;;6.93;0.90;;;;;;;;;;5323349;28;20088;-73
2022/07/17 02:55:58;;;;;;;2.53;1.33;;;;;;;;;;5322981;28;20292;-73
2022/07/17 02:58:29;;;;;;;7.85;1.02;;;;;;;;;;5323320;28;20277;-73
2022/07/17 03:01:00;;;;;;;5.88;1.08;;;;;;;;;;5323420;28;20045;-73
2022/07/17 03:03:31;;;;;;;4.70;1.15;;;;;;;;;;5322596;28;20023;-73
2022/07/17 03:06:03;;;;;;;5.28;0.68;;;;;;;;;;5323301;28;20019;-73
2022/07/17 03:08:34;;;;;;;5.28;0.80;;;;;;;;;;5323142;28;20481;-73
2022/07/17 03:11:05;;;;;;;3.90;0.70;;;;;;;;;;5322414;28;20035;-73
2022/07/17 03:13:36;;;;;;;9.30;1.08;;;;;;;;;;5323198;28;20474;-73
2022/07/17 03:16:07;;;;;;;8.27;1.45;;;;;;;;;;5323306;28;20466;-73
2022/07/17 03:18:39;;;;;;;5.68;0.93;;;;;;;;;;5322414;28;20008;-73
2022/07/17 03:21:10;;;;;;;5.63;0.80;;;;;;;;;;5323443;28;20459;-73
2022/07/17 03:23:41;;;;;;;7.47;0.98;;;;;;;;;;5322173;28;20039;-73
2022/07/17 03:26:12;;;;;;;6.22;0.88;;;;;;;;;;5323080;28;20378;-73
2022/07/17 03:28:43;;;;;;;4.90;0.90;;;;;;;;;;5323146;28;20780;-73
2022/07/17 03:31:14;;;;;;;6.70;0.80;;;;;;;;;;5322317;28;20034;-73
2022/07/17 03:33:46;;;;;;;7.87;1.37;;;;;;;;;;5323295;28;20338;-74
2022/07/17 03:36:18;;;;;;;3.75;0.77;;;;;;;;;;5323877;28;20807;-73
2022/07/17 03:38:49;;;;;;;5.45;0.75;;;;;;;;;;5326759;28;20099;-73
2022/07/17 03:41:20;;;;;;;7.18;1.15;;;;;;;;;;5326787;28;20012;-74
2022/07/17 03:43:51;;;;;;;2.83;0.70;;;;;;;;;;5327263;28;20012;-74
2022/07/17 03:46:23;;;;;;;3.80;0.80;;;;;;;;;;5325933;28;20265;-74
2022/07/17 03:48:54;;;;;;;3.73;1.10;;;;;;;;;;5327386;28;20053;-74
2022/07/17 03:51:25;;;;;;;4.30;1.00;;;;;;;;;;5326804;28;20265;-74
2022/07/17 03:53:56;;;;;;;2.75;0.80;;;;;;;;;;5326428;28;20088;-74
2022/07/17 03:56:27;;;;;;;6.70;0.88;;;;;;;;;;5326521;28;20068;-74
2022/07/17 03:58:58;;;;;;;3.73;1.10;;;;;;;;;;5326436;28;20269;-74
2022/07/17 04:01:30;;;;;;;6.78;0.88;;;;;;;;;;5326996;28;20310;-75
2022/07/17 04:04:01;;;;;;;4.38;0.90;;;;;;;;;;5326767;28;20272;-74
2022/07/17 04:06:32;;;;;;;4.50;0.90;;;;;;;;;;5325846;28;20015;-74
2022/07/17 04:09:04;;;;;;;8.20;1.02;;;;;;;;;;5326726;28;20020;-74
2022/07/17 04:11:35;;;;;;;5.53;1.05;;;;;;;;;;5326464;28;20023;-74
2022/07/17 04:14:06;;;;;;;6.07;1.20;;;;;;;;;;5325762;28;20458;-74
2022/07/17 04:16:37;;;;;;;7.00;0.70;;;;;;;;;;5326493;28;20028;-74
2022/07/17 04:19:08;;;;;;;4.50;0.80;;;;;;;;;;5326319;28;20109;-74
2022/07/17 04:21:40;;;;;;;5.03;1.20;;;;;;;;;;5325592;28;20020;-74
2022/07/17 04:24:11;;;;;;;5.55;0.98;;;;;;;;;;5326389;28;20269;-74
2022/07/17 04:26:43;;;;;;;6.88;0.75;;;;;;;;;;5326371;28;20027;-74
2022/07/17 04:29:14;;;;;;;8.10;1.38;;;;;;;;;;5325511;28;20030;-74
2022/07/17 04:31:45;;;;;;;7.37;0.90;;;;;;;;;;5326183;28;20016;-74
2022/07/17 04:34:17;;;;;;;6.05;1.25;;;;;;;;;;5325346;28;20284;-74
2022/07/17 04:36:48;;;;;;;9.93;1.20;;;;;;;;;;5326178;28;20257;-74
2022/07/17 04:39:19;;;;;;;3.67;0.80;;;;;;;;;;5325623;28;20023;-74
2022/07/17 04:41:50;;;;;;;6.40;0.70;;;;;;;;;;5325411;28;20107;-74
2022/07/17 04:44:21;;;;;;;8.27;0.90;;;;;;;;;;5325494;28;20012;-74
2022/07/17 04:46:55;;;;;;;7.47;0.82;;;;;;;;;;5326194;28;20012;-74
2022/07/17 04:49:26;;;;;;;6.75;1.25;;;;;;;;;;5323539;28;20024;-74
2022/07/17 04:51:57;;;;;;;6.97;1.42;;;;;;;;;;5326656;28;20458;-74
2022/07/17 04:54:28;;;;;;;7.00;1.17;;;;;;;;;;5325269;28;20371;-74
2022/07/17 04:56:59;;;;;;;4.97;1.10;;;;;;;;;;5324860;28;20743;-74
2022/07/17 04:59:31;;;;;;;5.97;1.15;;;;;;;;;;5325473;28;20615;-74
2022/07/17 05:02:03;;;;;;;6.75;0.88;;;;;;;;;;5325305;28;20268;-74
2022/07/17 05:04:34;;;;;;;7.80;1.20;;;;;;;;;;5325162;28;20023;-74
2022/07/17 05:07:05;;;;;;;8.25;1.10;;;;;;;;;;5325229;28;20497;-74
2022/07/17 05:09:36;;;;;;;7.47;1.00;;;;;;;;;;5324712;28;20823;-74
2022/07/17 05:12:08;;;;;;;5.00;1.25;;;;;;;;;;5325738;28;20051;-74
2022/07/17 05:14:39;;;;;;;3.88;1.33;;;;;;;;;;5325426;27;20257;-74
2022/07/17 05:17:10;;;;;;;10.05;1.58;;;;;;;;;;5324411;28;20019;-74
2022/07/17 05:19:42;;;;;;;5.93;1.33;;;;;;;;;;5325321;28;20035;-74
2022/07/17 05:22:13;;;;;;;7.38;1.30;;;;;;;;;;5325104;28;20046;-74
2022/07/17 05:24:44;;;;;;;5.82;1.02;;;;;;;;;;5324403;28;20073;-74
2022/07/17 05:27:15;;;;;;;4.28;1.00;;;;;;;;;;5324961;28;20067;-74
2022/07/17 05:29:46;;;;;;;6.38;1.17;;;;;;;;;;5325032;28;20012;-74
2022/07/17 05:32:17;;;;;;;4.83;0.97;;;;;;;;;;5324106;28;20261;-74
2022/07/17 05:34:49;;;;;;;3.95;1.00;;;;;;;;;;5325151;28;20264;-74
2022/07/17 05:37:20;;;;;;;11.75;1.10;;;;;;;;;;5323757;28;20019;-74
2022/07/17 05:39:51;;;;;;;7.00;1.40;;;;;;;;;;5325154;28;20563;-74
2022/07/17 05:42:22;;;;;;;5.55;1.08;;;;;;;;;;5324434;28;20097;-74
2022/07/17 05:44:53;;;;;;;4.57;1.20;;;;;;;;;;5324154;28;20351;-74
2022/07/17 05:47:25;;;;;;;7.05;1.13;;;;;;;;;;5324472;28;20312;-74
2022/07/17 05:49:56;;;;;;;8.73;1.63;;;;;;;;;;5324734;28;20284;-74
2022/07/17 05:52:27;;;;;;;9.05;1.15;;;;;;;;;;5323403;28;20474;-74
2022/07/17 05:54:58;;;;;;;10.43;1.42;;;;;;;;;;5324697;28;20470;-74
2022/07/17 05:57:29;;;;;;;6.13;1.30;;;;;;;;;;5324116;28;20300;-75
2022/07/17 06:00:01;;;;;;;7.90;1.20;;;;;;;;;;5323244;28;20262;-74
2022/07/17 06:02:32;;;;;;;5.50;1.40;;;;;;;;;;5324207;28;20269;-74
2022/07/17 06:05:03;;;;;;;8.48;1.65;;;;;;;;;;5324274;28;20768;-75
2022/07/17 06:07:34;;;;;;;6.65;1.88;;;;;;;;;;5323266;28;20035;-75
2022/07/17 06:10:06;;;;;;;6.90;1.70;;;;;;;;;;5324311;28;20031;-74
2022/07/17 06:12:37;;;;;;;7.15;2.15;;;;;;;;;;5323474;28;20066;-75
2022/07/17 06:15:08;;;;;;;6.28;1.83;;;;;;;;;;5324081;28;20387;-75
2022/07/17 06:17:40;;;;;;;7.30;2.15;;;;;;;;;;5323975;28;20016;-75
2022/07/17 06:20:12;;;;;;;4.87;1.47;;;;;;;;;;5323112;28;20076;-74
2022/07/17 06:22:43;;;;;;;8.77;2.95;;;;;;;;;;5323846;28;20281;-74
2022/07/17 06:25:14;;;;;;;7.40;2.08;;;;;;;;;;5324103;28;20019;-74
2022/07/17 06:27:46;;;;;;;7.50;1.45;;;;;;;;;;5323129;28;20051;-74
2022/07/17 06:30:17;;;;;;;6.78;2.17;;;;;;;;;;5323796;28;20268;-75
2022/07/17 06:32:48;;;;;;;9.00;2.53;;;;;;;;;;5323624;28;20284;-74
2022/07/17 06:35:19;;;;;;;8.73;1.92;;;;;;;;;;5322474;28;20466;-74
2022/07/17 06:37:50;;;;;;;9.13;2.30;;;;;;;;;;5323865;28;20763;-74
2022/07/17 06:40:22;;;;;;;4.37;1.70;;;;;;;;;;5323512;28;20616;-74
2022/07/17 06:42:53;;;;;;;9.52;2.45;;;;;;;;;;5322925;28;20261;-74
2022/07/17 06:45:24;;;;;;;5.53;1.90;;;;;;;;;;5323178;28;20045;-73
2022/07/17 06:47:55;;;;;;;6.70;1.70;;;;;;;;;;5323059;28;20772;-74
2022/07/17 06:50:27;;;;;;;6.85;1.65;;;;;;;;;;5323354;28;20099;-74
2022/07/17 06:52:58;;;;;;;4.85;1.58;;;;;;;;;;5323957;28;20273;-75
2022/07/17 06:55:29;;;;;;;9.05;1.83;;;;;;;;;;5322379;28;20016;-74
2022/07/17 06:58:00;;;;;;;7.05;1.80;;;;;;;;;;5323545;28;20016;-75
2022/07/17 07:00:32;;;;;;;3.70;1.80;;;;;;;;;;5323561;28;20007;-75
2022/07/17 07:03:03;;;;;;;4.50;1.63;;;;;;;;;;5322695;28;20016;-73
2022/07/17 07:05:34;;;;;;;8.55;1.40;;;;;;;;;;5323539;28;20024;-75
2022/07/17 07:08:05;;;;;;;8.23;1.85;;;;;;;;;;5323409;28;20413;-75
2022/07/17 07:10:37;;;;;;;4.88;1.55;;;;;;;;;;5322973;28;20016;-74
2022/07/17 07:13:08;;;;;;;10.32;1.80;;;;;;;;;;5327626;28;20026;-74
2022/07/17 07:15:40;;;;;;;5.82;1.90;;;;;;;;;;5327979;28;20053;-75
2022/07/17 07:18:11;;;;;;;8.55;1.90;;;;;;;;;;5327050;28;20059;-74
2022/07/17 07:20:42;;;;;;;8.13;2.15;;;;;;;;;;5327729;28;20018;-74
2022/07/17 07:23:13;;;;;;;6.97;1.42;;;;;;;;;;5326790;28;20052;-74
2022/07/17 07:25:44;;;;;;;5.53;1.70;;;;;;;;;;5327570;28;20549;-74
2022/07/17 07:28:16;;;;;;;3.72;1.30;;;;;;;;;;5327576;28;20601;-75
2022/07/17 07:30:47;;;;;;;9.57;1.20;;;;;;;;;;5326667;28;20051;-74
2022/07/17 07:33:18;;;;;;;6.82;1.35;;;;;;;;;;5327314;28;20338;-71
2022/07/17 07:35:50;;;;;;;4.47;0.85;;;;;;;;;;5327595;28;20018;-72
2022/07/17 07:38:21;;;;;;;7.40;1.30;;;;;;;;;;5326235;28;20027;-71
2022/07/17 07:40:52;;;;;;;3.37;1.13;;;;;;;;;;5327574;28;20047;-71
2022/07/17 07:43:23;;;;;;;3.63;0.75;;;;;;;;;;5326841;28;20329;-73
2022/07/17 07:45:55;;;;;;;5.47;0.70;;;;;;;;;;5326541;28;20336;-74
2022/07/17 07:48:26;;;;;;;6.78;0.70;;;;;;;;;;5326891;28;20437;-73
2022/07/17 07:50:57;;;;;;;7.10;0.90;;;;;;;;;;5326785;28;20043;-73
2022/07/17 07:53:28;;;;;;;7.20;0.98;;;;;;;;;;5326681;28;20327;-73
2022/07/17 07:55:59;;;;;;;7.10;1.00;;;;;;;;;;5326831;28;20089;-74
2022/07/17 07:58:31;;;;;;;6.37;1.23;;;;;;;;;;5326340;28;20408;-73
2022/07/17 08:01:02;;;;;;;6.07;0.60;;;;;;;;;;5327030;28;20265;-72
2022/07/17 08:03:33;;;;;;;4.88;0.70;;;;;;;;;;5326757;27;20284;-73
2022/07/17 08:06:04;;;;;;;6.75;0.88;;;;;;;;;;5325955;28;20027;-72
2022/07/17 08:08:35;;;;;;;6.78;0.68;;;;;;;;;;5326141;28;20458;-73
2022/07/17 08:11:07;;;;;;;6.10;1.00;;;;;;;;;;5326440;28;20152;-73
2022/07/17 08:13:38;;;;;;;5.50;1.17;;;;;;;;;;5326077;28;20076;-73
2022/07/17 08:16:09;;;;;;;6.50;1.13;;;;;;;;;;5326637;28;20315;-75
2022/07/17 08:18:40;;;;;;;5.22;0.80;;;;;;;;;;5326598;28;20047;-76
2022/07/17 08:21:11;;;;;;;6.32;0.90;;;;;;;;;;5325542;28;20019;-75
2022/07/17 08:23:43;;;;;;;6.47;1.17;;;;;;;;;;5325510;28;20289;-75
2022/07/17 08:26:14;;;;;;;3.72;0.75;;;;;;;;;;5325369;28;20277;-75
2022/07/17 08:28:46;;;;;;;6.47;0.87;;;;;;;;;;5325565;28;20054;-76
2022/07/17 08:31:17;;;;;;;3.58;0.60;;;;;;;;;;5325912;28;20277;-75
2022/07/17 08:33:48;;;;;;;4.85;0.70;;;;;;;;;;5325278;28;20019;-75
2022/07/17 08:36:19;;;;;;;5.27;0.90;;;;;;;;;;5325878;28;20365;-76
2022/07/17 08:38:50;;;;;;;4.70;0.50;;;;;;;;;;5326452;28;20293;-75
2022/07/17 08:41:22;;;;;;;4.05;0.65;;;;;;;;;;5324897;28;20265;-75
2022/07/17 08:43:54;;;;;;;6.68;0.80;;;;;;;;;;5326231;28;20019;-75
2022/07/17 08:46:26;;;;;;;5.13;0.60;;;;;;;;;;5325937;28;20016;-75
2022/07/17 08:48:59;;;;;;;4.50;0.70;;;;;;;;;;5325318;28;20035;-76
2022/07/17 08:51:30;;;;;;;5.60;0.60;;;;;;;;;;5325555;28;20027;-75
2022/07/17 08:54:02;;;;;;;5.20;0.90;;;;;;;;;;5325804;27;20023;-75
2022/07/17 08:56:33;;;;;;;2.97;0.60;;;;;;;;;;5324855;28;20038;-76
2022/07/17 08:59:04;;;;;;;3.03;0.50;;;;;;;;;;5325928;28;20012;-76
2022/07/17 09:01:35;;;;;;;3.40;0.50;;;;;;;;;;5324989;28;20026;-76
2022/07/17 09:04:07;;;;;;;5.40;0.53;;;;;;;;;;5325794;28;20023;-76
2022/07/17 09:06:38;;;;;;;2.83;0.40;;;;;;;;;;5325762;28;20261;-76
2022/07/17 09:09:10;;;;;;;3.13;0.50;;;;;;;;;;5325004;28;20038;-73
2022/07/17 09:11:45;;;;;;;3.40;0.40;;;;;;;;;;5325705;28;20474;-79
2022/07/17 09:14:17;;;;;;;4.45;0.50;;;;;;;;;;5325511;28;20030;-76
2022/07/17 09:16:53;;;;;;;3.88;0.60;;;;;;;;;;5324838;28;20489;-83
2022/07/17 09:19:34;;;;;;;3.50;0.40;;;;;;;;;;5325323;28;20016;-82
2022/07/17 09:22:10;;;;;;;2.13;0.32;;;;;;;;;;5325149;28;20044;-79
2022/07/17 09:24:42;;;;;;;1.40;0.30;;;;;;;;;;5324968;28;20020;-76
2022/07/17 09:27:17;;;;;;;1.65;0.30;;;;;;;;;;5325239;28;20015;-81
2022/07/17 09:29:53;;;;;;;2.05;0.43;;;;;;;;;;5324207;28;20470;-77
2022/07/17 09:32:25;;;;;;;1.98;0.47;;;;;;;;;;5324925;28;20016;-75
2022/07/17 09:34:58;;;;;;;2.42;0.30;;;;;;;;;;5324474;28;20064;-75
2022/07/17 09:37:30;;;;;;;2.72;0.50;;;;;;;;;;5323918;28;20355;-75
2022/07/17 09:40:08;;;;;;;4.03;0.80;;;;;;;;;;5324795;28;20028;-75
2022/07/17 09:42:39;;;;;;;2.95;0.50;;;;;;;;;;5324867;28;20544;-75
2022/07/17 09:45:10;;;;;;;3.73;0.40;;;;;;;;;;5323850;28;20019;-76
2022/07/17 09:47:41;;;;;;;1.92;0.40;;;;;;;;;;5324711;28;20674;-75
2022/07/17 09:50:13;;;;;;;3.03;0.40;;;;;;;;;;5324725;28;20016;-75
2022/07/17 09:52:44;;;;;;;5.53;0.40;;;;;;;;;;5323783;28;20016;-75
2022/07/17 09:55:16;;;;;;;2.17;0.40;;;;;;;;;;5324719;28;20378;-75
2022/07/17 09:57:48;;;;;;;6.13;0.47;;;;;;;;;;5323540;28;20428;-75
2022/07/17 10:00:21;;;;;;;2.88;0.43;;;;;;;;;;5324155;28;20016;-75
2022/07/17 10:02:53;;;;;;;3.08;0.60;;;;;;;;;;5324538;28;20157;-75
2022/07/17 10:05:24;;;;;;;3.63;0.50;;;;;;;;;;5323180;28;20513;-75
2022/07/17 10:07:55;;;;;;;5.37;0.93;;;;;;;;;;5324476;28;20471;-75
2022/07/17 10:10:26;;;;;;;2.87;0.47;;;;;;;;;;5323927;28;20265;-75
2022/07/17 10:12:57;;;;;;;3.40;0.47;;;;;;;;;;5323576;28;20466;-75
2022/07/17 10:15:29;;;;;;;1.90;0.30;;;;;;;;;;5323796;28;20300;-75
2022/07/17 10:18:06;;;;;;;1.52;0.38;;;;;;;;;;5324247;28;20362;-75
2022/07/17 10:20:37;;;;;;;4.57;0.40;;;;;;;;;;5323309;28;20020;-75
2022/07/17 10:23:12;;;;;;;2.83;0.30;;;;;;;;;;5323931;28;20058;-75
2022/07/17 10:25:43;;;;;;;2.80;0.45;;;;;;;;;;5323231;28;20473;-75
2022/07/17 10:28:16;;;;;;;6.53;1.30;;;;;;;;;;5323908;28;20107;-75
2022/07/17 10:30:47;;;;;;;2.95;0.35;;;;;;;;;;5323883;28;20605;-75
2022/07/17 10:33:19;;;;;;;2.40;0.40;;;;;;;;;;5322735;28;20043;-75
2022/07/17 10:35:51;;;;;;;2.58;0.60;;;;;;;;;;5324184;28;20265;-75
2022/07/17 10:38:22;;;;;;;1.67;0.50;;;;;;;;;;5323658;28;20386;-75
2022/07/17 10:41:03;;;;;;;2.33;0.33;;;;;;;;;;5323442;28;20019;-75
2022/07/17 10:43:44;;;;;;;2.78;0.40;;;;;;;;;;5323927;28;20269;-75
2022/07/17 10:46:15;;;;;;;3.70;0.50;;;;;;;;;;5323593;28;20387;-74
2022/07/17 10:48:47;;;;;;;2.88;0.40;;;;;;;;;;5322701;28;20031;-75
2022/07/17 10:51:18;;;;;;;4.53;0.40;;;;;;;;;;5323485;28;20007;-75
2022/07/17 10:53:50;;;;;;;5.60;0.50;;;;;;;;;;5323372;28;20016;-74
2022/07/17 10:56:21;;;;;;;4.27;0.50;;;;;;;;;;5323248;28;20019;-75
2022/07/17 10:58:52;;;;;;;5.73;0.63;;;;;;;;;;5323873;28;20015;-74
2022/07/17 11:01:24;;;;;;;5.10;0.63;;;;;;;;;;5322235;28;20026;-74
2022/07/17 11:03:56;;;;;;;4.43;0.50;;;;;;;;;;5323965;28;20073;-74
2022/07/17 11:06:30;;;;;;;4.22;0.70;;;;;;;;;;5323379;28;20019;-74
2022/07/17 11:09:03;;;;;;;4.15;0.50;;;;;;;;;;5322704;28;20074;-74
2022/07/17 11:11:36;;;;;;;5.47;0.50;;;;;;;;;;5323310;28;20008;-75
2022/07/17 11:14:07;;;;;;;3.67;0.50;;;;;;;;;;5323597;28;20105;-74
2022/07/17 11:16:55;;;;;;;7.97;0.45;;;;;;;;;;5322454;28;20065;-73
2022/07/17 11:19:27;;;;;;;3.93;0.50;;;;;;;;;;5323225;28;20595;-74
2022/07/17 11:22:00;;;;;;;3.25;0.40;;;;;;;;;;5322559;28;20150;-75
2022/07/17 11:24:35;;;;;;;7.07;0.50;;;;;;;;;;5323302;28;20063;-75
2022/07/17 11:27:06;;;;;;;4.18;0.60;;;;;;;;;;5323196;28;20032;-75
2022/07/17 11:29:41;;;;;;;2.60;0.40;;;;;;;;;;5322429;28;20045;-75
2022/07/17 11:32:12;;;;;;;3.72;0.55;;;;;;;;;;5323136;28;20276;-75
2022/07/17 11:34:43;;;;;;;3.43;0.40;;;;;;;;;;5323094;28;20024;-75
2022/07/17 11:37:14;;;;;;;3.95;0.38;;;;;;;;;;5322604;28;20258;-75
2022/07/17 11:39:49;;;;;;;5.60;0.50;;;;;;;;;;5323168;28;20028;-74
2022/07/17 11:42:22;;;;;;;3.67;0.60;;;;;;;;;;5322705;28;20270;-74
2022/07/17 11:44:53;;;;;;;2.13;0.68;;;;;;;;;;5322679;28;20060;-75
2022/07/17 11:47:26;;;;;;;6.60;0.52;;;;;;;;;;5322553;28;20478;-74
2022/07/17 11:50:04;;;;;;;2.80;0.50;;;;;;;;;;5323531;28;20459;-75
2022/07/17 11:52:45;;;;;;;4.03;0.55;;;;;;;;;;5323021;28;20378;-75
2022/07/17 11:55:17;;;;;;;4.43;0.47;;;;;;;;;;5322798;28;20016;-75
2022/07/17 11:57:49;;;;;;;4.18;0.60;;;;;;;;;;5323605;28;20027;-75
2022/07/17 12:00:20;;;;;;;3.20;0.60;;;;;;;;;;5326773;28;20028;-74
2022/07/17 12:02:58;;;;;;;2.88;0.47;;;;;;;;;;5327044;28;20028;-74
2022/07/17 12:05:30;;;;;;;3.30;0.47;;;;;;;;;;5325763;28;20486;-75
2022/07/17 12:08:02;;;;;;;3.90;0.40;;;;;;;;;;5326525;28;20038;-74
2022/07/17 12:10:33;;;;;;;4.97;0.50;;;;;;;;;;5326864;28;20015;-74
2022/07/17 12:13:05;;;;;;;3.77;0.50;;;;;;;;;;5326100;28;20016;-74
2022/07/17 12:15:42;;;;;;;4.60;0.65;;;;;;;;;;5326680;28;20269;-75
2022/07/17 12:18:20;;;;;;;4.10;0.40;;;;;;;;;;5325655;28;20152;-75
2022/07/17 12:20:52;;;;;;;;;;;;;;;;;;5327577;28;20043;-75
2022/07/17 12:23:30;;;;;;;5.18;0.47;;;;;;;;;;5326188;28;19947;-76
2022/07/17 12:26:11;;;;;;;4.80;0.57;;;;;;;;;;5325525;28;20027;-75
2022/07/17 12:28:43;;;;;;;4.25;0.50;;;;;;;;;;5326077;28;20482;-75
2022/07/17 12:31:15;;;;;;;3.55;0.50;;;;;;;;;;5326361;28;20046;-76
2022/07/17 12:33:46;;;;;;;6.07;0.65;;;;;;;;;;5325090;28;20105;-76
2022/07/17 12:36:18;;;;;;;2.67;0.43;;;;;;;;;;5325647;28;20378;-75
2022/07/17 12:38:49;;;;;;;5.20;0.60;;;;;;;;;;5326392;28;20019;-74
2022/07/17 12:41:20;;;;;;;8.75;0.50;;;;;;;;;;5324722;28;20020;-75
2022/07/17 12:43:52;;;;;;;8.55;0.63;;;;;;;;;;5322557;28;20029;-74
2022/07/17 12:46:23;;;;;;;5.27;0.60;;;;;;;;;;5308489;28;20103;-77
2022/07/17 12:48:54;;;;;;;4.70;0.75;;;;;;;;;;5309919;28;20089;-76
2022/07/17 12:51:26;;;;;;;5.77;0.40;;;;;;;;;;5322086;28;20072;-75
2022/07/17 12:53:57;;;;;;;2.65;0.60;;;;;;;;;;5324789;28;20266;-75
2022/07/17 12:56:28;;;;;;;3.22;0.50;;;;;;;;;;5325341;28;20019;-75
2022/07/17 12:58:59;;;;;;;4.53;0.40;;;;;;;;;;5325137;28;20069;-75
2022/07/17 13:01:31;;;;;;;4.13;0.50;;;;;;;;;;5324032;28;20029;-75
2022/07/17 13:04:02;;;;;;;6.70;0.70;;;;;;;;;;5324995;28;20024;-76
2022/07/17 13:06:33;;;;;;;3.73;0.63;;;;;;;;;;5325295;28;20032;-75
2022/07/17 13:09:04;;;;;;;7.13;0.50;;;;;;;;;;5323020;28;20389;-75
2022/07/17 13:11:36;;;;;;;3.70;0.43;;;;;;;;;;5325038;28;20011;-76
2022/07/17 13:14:11;;;;;;;6.60;0.50;;;;;;;;;;5324949;28;20024;-75
2022/07/17 13:16:42;;;;;;;3.50;0.30;;;;;;;;;;5324378;28;20026;-75
2022/07/17 13:19:13;;;;;;;5.18;0.43;;;;;;;;;;5324710;28;20475;-75
2022/07/17 13:21:45;;;;;;;5.83;0.50;;;;;;;;;;5323644;28;20081;-75
2022/07/17 13:24:16;;;;;;;2.50;0.40;;;;;;;;;;5324597;28;20023;-75
2022/07/17 13:26:47;;;;;;;5.53;0.73;;;;;;;;;;5324743;28;20356;-75
2022/07/17 13:29:19;;;;;;;3.00;0.43;;;;;;;;;;5323197;28;20019;-75
2022/07/17 13:31:50;;;;;;;4.93;0.50;;;;;;;;;;5324940;28;20027;-74
2022/07/17 13:34:21;;;;;;;7.47;0.40;;;;;;;;;;5324092;28;20111;-74
2022/07/17 13:36:53;;;;;;;4.38;0.40;;;;;;;;;;5323951;28;20612;-74
2022/07/17 13:39:24;;;;;;;4.13;0.50;;;;;;;;;;5324098;28;20011;-74
2022/07/17 13:41:55;;;;;;;3.92;0.40;;;;;;;;;;5324723;28;20361;-74
2022/07/17 13:44:27;;;;;;;4.15;0.70;;;;;;;;;;5323443;28;20031;-75
2022/07/17 13:46:58;;;;;;;3.75;0.40;;;;;;;;;;5324561;28;20018;-74
2022/07/17 13:49:30;;;;;;;5.03;0.63;;;;;;;;;;5324010;28;20023;-74
2022/07/17 13:52:01;;;;;;;5.10;0.70;;;;;;;;;;5322911;28;20016;-74
2022/07/17 13:54:32;;;;;;;4.80;0.43;;;;;;;;;;5324334;28;20058;-74
2022/07/17 13:57:03;;;;;;;3.50;0.47;;;;;;;;;;5323418;28;20027;-74
2022/07/17 13:59:35;;;;;;;5.03;0.70;;;;;;;;;;5324496;28;20628;-74
2022/07/17 14:02:07;;;;;;;6.10;0.50;;;;;;;;;;5324266;28;20080;-74
2022/07/17 14:04:38;;;;;;;3.67;0.40;;;;;;;;;;5323419;28;20542;-73
2022/07/17 14:07:09;;;;;;;4.40;0.40;;;;;;;;;;5324095;28;20023;-73
2022/07/17 14:09:40;;;;;;;5.63;0.50;;;;;;;;;;5324141;28;20292;-73
2022/07/17 14:12:11;;;;;;;1.50;0.38;;;;;;;;;;5323001;28;20079;-74
2022/07/17 14:14:43;;;;;;;4.67;0.50;;;;;;;;;;5323702;28;20020;-73
2022/07/17 14:17:17;;;;;;;2.53;0.40;;;;;;;;;;5323905;28;20697;-73
2022/07/17 14:19:48;;;;;;;3.15;0.47;;;;;;;;;;5323030;28;20160;-74
2022/07/17 14:22:19;;;;;;;4.45;0.40;;;;;;;;;;5323625;28;20552;-73
2022/07/17 14:24:51;;;;;;;3.23;0.40;;;;;;;;;;5323596;28;20016;-74
2022/07/17 14:27:22;;;;;;;3.27;0.43;;;;;;;;;;5323400;28;20329;-74
2022/07/17 14:29:53;;;;;;;5.00;0.83;;;;;;;;;;5323996;28;20304;-74
2022/07/17 14:32:24;;;;;;;8.88;0.43;;;;;;;;;;5322577;28;20536;-72
2022/07/17 14:34:55;;;;;;;4.72;0.50;;;;;;;;;;5324083;28;20462;-74
2022/07/17 14:37:26;;;;;;;3.40;0.50;;;;;;;;;;5323419;28;20474;-73
2022/07/17 14:39:58;;;;;;;3.57;0.47;;;;;;;;;;5323216;28;20470;-73
2022/07/17 14:42:29;;;;;;;4.70;0.83;;;;;;;;;;5323574;28;20015;-73
2022/07/17 14:45:00;;;;;;;2.60;0.40;;;;;;;;;;5323809;28;20034;-73
2022/07/17 14:47:31;;;;;;;5.87;0.60;;;;;;;;;;5322858;28;20027;-73
2022/07/17 14:50:03;;;;;;;4.03;0.50;;;;;;;;;;5323561;28;20023;-72
2022/07/17 14:52:34;;;;;;;3.88;0.50;;;;;;;;;;5323475;28;20327;-73
2022/07/17 14:55:05;;;;;;;3.30;0.40;;;;;;;;;;5323016;28;20034;-73
2022/07/17 14:57:36;;;;;;;4.10;0.47;;;;;;;;;;5323469;28;20058;-73
2022/07/17 15:00:08;;;;;;;4.10;0.32;;;;;;;;;;5322348;28;20020;-72
2022/07/17 15:02:41;;;;;;;2.67;0.57;;;;;;;;;;5324167;28;20030;-73
2022/07/17 15:05:12;;;;;;;7.72;0.77;;;;;;;;;;5323085;28;20020;-73
2022/07/17 15:07:43;;;;;;;4.47;0.60;;;;;;;;;;5322594;28;20032;-73
2022/07/17 15:10:14;;;;;;;3.55;0.43;;;;;;;;;;5323238;28;20022;-73